sensor_id;sensor_type;location;lat;lon;timestamp;P1;durP1;ratioP1;P2;durP2;ratioP2
30543;SDS011;43388;46.308;4.600;2023-04-24T00:00:21;8.32;;;3.53;;
30543;SDS011;43388;46.308;4.600;2023-04-24T00:02:47;9.02;;;2.97;;
30543;SDS011;43388;46.308;4.600;2023-04-24T00:05:14;6.07;;;3.00;;
30543;SDS011;43388;46.308;4.600;2023-04-24T00:07:40;7.32;;;2.90;;
30543;SDS011;43388;46.308;4.600;2023-04-24T00:10:07;8.68;;;3.47;;
30543;SDS011;43388;46.308;4.600;2023-04-24T00:12:33;6.63;;;3.45;;
30543;SDS011;43388;46.308;4.600;2023-04-24T00:14:59;9.65;;;3.08;;
30543;SDS011;43388;46.308;4.600;2023-04-24T00:17:25;8.05;;;3.30;;
30543;SDS011;43388;46.308;4.600;2023-04-24T00:19:52;8.35;;;3.10;;
30543;SDS011;43388;46.308;4.600;2023-04-24T00:22:23;6.50;;;3.40;;
30543;SDS011;43388;46.308;4.600;2023-04-24T00:24:49;7.40;;;3.03;;
30543;SDS011;43388;46.308;4.600;2023-04-24T00:27:15;12.55;;;3.58;;
30543;SDS011;43388;46.308;4.600;2023-04-24T00:29:41;9.30;;;2.78;;
30543;SDS011;43388;46.308;4.600;2023-04-24T00:32:07;8.55;;;3.08;;
30543;SDS011;43388;46.308;4.600;2023-04-24T00:34:33;8.85;;;3.30;;
30543;SDS011;43388;46.308;4.600;2023-04-24T00:37:00;6.97;;;2.78;;
30543;SDS011;43388;46.308;4.600;2023-04-24T00:39:27;5.65;;;2.78;;
30543;SDS011;43388;46.308;4.600;2023-04-24T00:41:53;8.18;;;3.03;;
30543;SDS011;43388;46.308;4.600;2023-04-24T00:44:19;8.30;;;3.90;;
30543;SDS011;43388;46.308;4.600;2023-04-24T00:46:45;7.53;;;3.00;;
30543;SDS011;43388;46.308;4.600;2023-04-24T00:49:12;6.65;;;3.00;;
30543;SDS011;43388;46.308;4.600;2023-04-24T00:51:38;8.75;;;4.10;;
30543;SDS011;43388;46.308;4.600;2023-04-24T00:54:05;5.20;;;2.53;;
30543;SDS011;43388;46.308;4.600;2023-04-24T00:56:31;7.75;;;3.00;;
30543;SDS011;43388;46.308;4.600;2023-04-24T00:58:58;6.80;;;2.97;;
30543;SDS011;43388;46.308;4.600;2023-04-24T01:01:24;10.75;;;4.13;;
30543;SDS011;43388;46.308;4.600;2023-04-24T01:03:50;6.57;;;2.95;;
30543;SDS011;43388;46.308;4.600;2023-04-24T01:06:18;9.90;;;3.60;;
30543;SDS011;43388;46.308;4.600;2023-04-24T01:08:44;9.05;;;2.97;;
30543;SDS011;43388;46.308;4.600;2023-04-24T01:11:11;9.15;;;3.10;;
30543;SDS011;43388;46.308;4.600;2023-04-24T01:13:37;7.60;;;3.50;;
30543;SDS011;43388;46.308;4.600;2023-04-24T01:16:03;7.13;;;3.03;;
30543;SDS011;43388;46.308;4.600;2023-04-24T01:18:29;8.35;;;3.25;;
30543;SDS011;43388;46.308;4.600;2023-04-24T01:20:57;5.10;;;2.80;;
30543;SDS011;43388;46.308;4.600;2023-04-24T01:23:23;4.85;;;2.90;;
30543;SDS011;43388;46.308;4.600;2023-04-24T01:25:50;8.20;;;3.67;;
30543;SDS011;43388;46.308;4.600;2023-04-24T01:28:16;10.60;;;4.38;;
30543;SDS011;43388;46.308;4.600;2023-04-24T01:30:42;7.70;;;3.67;;
30543;SDS011;43388;46.308;4.600;2023-04-24T01:33:08;6.93;;;3.22;;
30543;SDS011;43388;46.308;4.600;2023-04-24T01:35:35;7.57;;;3.47;;
30543;SDS011;43388;46.308;4.600;2023-04-24T01:38:02;8.63;;;3.25;;
30543;SDS011;43388;46.308;4.600;2023-04-24T01:40:28;7.20;;;3.25;;
30543;SDS011;43388;46.308;4.600;2023-04-24T01:42:54;7.55;;;3.65;;
30543;SDS011;43388;46.308;4.600;2023-04-24T01:45:21;7.90;;;3.42;;
30543;SDS011;43388;46.308;4.600;2023-04-24T01:47:47;7.30;;;4.07;;
30543;SDS011;43388;46.308;4.600;2023-04-24T01:50:14;6.93;;;3.15;;
30543;SDS011;43388;46.308;4.600;2023-04-24T01:52:40;8.25;;;3.30;;
30543;SDS011;43388;46.308;4.600;2023-04-24T01:55:06;7.22;;;3.50;;
30543;SDS011;43388;46.308;4.600;2023-04-24T01:57:32;5.72;;;3.22;;
30543;SDS011;43388;46.308;4.600;2023-04-24T01:59:58;7.63;;;3.40;;
30543;SDS011;43388;46.308;4.600;2023-04-24T02:02:25;9.25;;;3.70;;
30543;SDS011;43388;46.308;4.600;2023-04-24T02:04:56;6.78;;;3.38;;
30543;SDS011;43388;46.308;4.600;2023-04-24T02:07:22;11.85;;;3.47;;
30543;SDS011;43388;46.308;4.600;2023-04-24T02:09:48;9.63;;;4.20;;
30543;SDS011;43388;46.308;4.600;2023-04-24T02:12:14;7.82;;;3.30;;
30543;SDS011;43388;46.308;4.600;2023-04-24T02:14:42;4.10;;;2.97;;
30543;SDS011;43388;46.308;4.600;2023-04-24T02:17:08;9.35;;;4.13;;
30543;SDS011;43388;46.308;4.600;2023-04-24T02:19:34;9.02;;;3.83;;
30543;SDS011;43388;46.308;4.600;2023-04-24T02:22:00;10.63;;;2.95;;
30543;SDS011;43388;46.308;4.600;2023-04-24T02:24:26;6.90;;;2.90;;
30543;SDS011;43388;46.308;4.600;2023-04-24T02:26:52;6.85;;;3.03;;
30543;SDS011;43388;46.308;4.600;2023-04-24T02:29:18;5.97;;;2.55;;
30543;SDS011;43388;46.308;4.600;2023-04-24T02:31:44;3.55;;;2.40;;
30543;SDS011;43388;46.308;4.600;2023-04-24T02:34:10;5.90;;;3.17;;
30543;SDS011;43388;46.308;4.600;2023-04-24T02:36:36;3.58;;;2.95;;
30543;SDS011;43388;46.308;4.600;2023-04-24T02:39:02;2.90;;;2.70;;
30543;SDS011;43388;46.308;4.600;2023-04-24T02:41:28;5.88;;;2.78;;
30543;SDS011;43388;46.308;4.600;2023-04-24T02:43:57;5.20;;;2.90;;
30543;SDS011;43388;46.308;4.600;2023-04-24T02:46:23;5.75;;;2.78;;
30543;SDS011;43388;46.308;4.600;2023-04-24T02:48:49;6.35;;;3.60;;
30543;SDS011;43388;46.308;4.600;2023-04-24T02:51:15;6.28;;;2.83;;
30543;SDS011;43388;46.308;4.600;2023-04-24T02:53:41;5.03;;;2.60;;
30543;SDS011;43388;46.308;4.600;2023-04-24T02:56:07;5.28;;;3.28;;
30543;SDS011;43388;46.308;4.600;2023-04-24T02:58:33;7.18;;;3.03;;
30543;SDS011;43388;46.308;4.600;2023-04-24T03:01:00;4.25;;;2.75;;
30543;SDS011;43388;46.308;4.600;2023-04-24T03:03:26;5.28;;;2.60;;
30543;SDS011;43388;46.308;4.600;2023-04-24T03:05:52;7.53;;;2.60;;
30543;SDS011;43388;46.308;4.600;2023-04-24T03:08:18;7.75;;;3.17;;
30543;SDS011;43388;46.308;4.600;2023-04-24T03:10:44;4.20;;;2.58;;
30543;SDS011;43388;46.308;4.600;2023-04-24T03:13:10;5.03;;;2.95;;
30543;SDS011;43388;46.308;4.600;2023-04-24T03:15:36;6.15;;;3.00;;
30543;SDS011;43388;46.308;4.600;2023-04-24T03:18:02;6.90;;;3.22;;
30543;SDS011;43388;46.308;4.600;2023-04-24T03:20:28;5.25;;;3.00;;
30543;SDS011;43388;46.308;4.600;2023-04-24T03:22:55;5.68;;;3.22;;
30543;SDS011;43388;46.308;4.600;2023-04-24T03:25:22;5.65;;;3.28;;
30543;SDS011;43388;46.308;4.600;2023-04-24T03:27:48;5.80;;;3.53;;
30543;SDS011;43388;46.308;4.600;2023-04-24T03:30:14;6.25;;;3.60;;
30543;SDS011;43388;46.308;4.600;2023-04-24T03:32:40;9.23;;;4.68;;
30543;SDS011;43388;46.308;4.600;2023-04-24T03:35:06;4.20;;;3.80;;
30543;SDS011;43388;46.308;4.600;2023-04-24T03:37:33;6.07;;;3.80;;
30543;SDS011;43388;46.308;4.600;2023-04-24T03:39:59;6.32;;;4.13;;
30543;SDS011;43388;46.308;4.600;2023-04-24T03:42:25;9.30;;;4.32;;
30543;SDS011;43388;46.308;4.600;2023-04-24T03:44:51;10.80;;;4.00;;
30543;SDS011;43388;46.308;4.600;2023-04-24T03:47:18;9.93;;;4.90;;
30543;SDS011;43388;46.308;4.600;2023-04-24T03:49:44;6.57;;;4.35;;
30543;SDS011;43388;46.308;4.600;2023-04-24T03:52:10;7.70;;;4.68;;
30543;SDS011;43388;46.308;4.600;2023-04-24T03:54:36;7.40;;;4.55;;
30543;SDS011;43388;46.308;4.600;2023-04-24T03:57:02;6.28;;;4.40;;
30543;SDS011;43388;46.308;4.600;2023-04-24T03:59:29;5.75;;;4.20;;
30543;SDS011;43388;46.308;4.600;2023-04-24T04:01:55;9.65;;;4.70;;
30543;SDS011;43388;46.308;4.600;2023-04-24T04:04:21;6.82;;;4.68;;
30543;SDS011;43388;46.308;4.600;2023-04-24T04:06:47;7.78;;;5.10;;
30543;SDS011;43388;46.308;4.600;2023-04-24T04:09:14;6.15;;;4.30;;
30543;SDS011;43388;46.308;4.600;2023-04-24T04:11:40;5.93;;;4.20;;
30543;SDS011;43388;46.308;4.600;2023-04-24T04:14:06;6.88;;;4.75;;
30543;SDS011;43388;46.308;4.600;2023-04-24T04:16:32;9.48;;;5.20;;
30543;SDS011;43388;46.308;4.600;2023-04-24T04:18:58;8.35;;;4.75;;
30543;SDS011;43388;46.308;4.600;2023-04-24T04:21:24;5.57;;;5.00;;
30543;SDS011;43388;46.308;4.600;2023-04-24T04:23:52;7.60;;;5.13;;
30543;SDS011;43388;46.308;4.600;2023-04-24T04:26:18;6.60;;;5.60;;
30543;SDS011;43388;46.308;4.600;2023-04-24T04:28:44;7.18;;;5.03;;
30543;SDS011;43388;46.308;4.600;2023-04-24T04:31:10;7.55;;;5.22;;
30543;SDS011;43388;46.308;4.600;2023-04-24T04:33:36;14.20;;;5.00;;
30543;SDS011;43388;46.308;4.600;2023-04-24T04:36:04;8.45;;;5.25;;
30543;SDS011;43388;46.308;4.600;2023-04-24T04:38:30;6.97;;;5.35;;
30543;SDS011;43388;46.308;4.600;2023-04-24T04:40:56;5.88;;;5.15;;
30543;SDS011;43388;46.308;4.600;2023-04-24T04:43:23;8.45;;;5.70;;
30543;SDS011;43388;46.308;4.600;2023-04-24T04:45:49;7.93;;;4.60;;
30543;SDS011;43388;46.308;4.600;2023-04-24T04:48:16;8.90;;;4.72;;
30543;SDS011;43388;46.308;4.600;2023-04-24T04:50:43;7.00;;;4.90;;
30543;SDS011;43388;46.308;4.600;2023-04-24T04:53:09;8.80;;;5.63;;
30543;SDS011;43388;46.308;4.600;2023-04-24T04:55:35;8.55;;;5.32;;
30543;SDS011;43388;46.308;4.600;2023-04-24T04:58:01;9.43;;;5.03;;
30543;SDS011;43388;46.308;4.600;2023-04-24T05:00:28;6.80;;;5.10;;
30543;SDS011;43388;46.308;4.600;2023-04-24T05:02:58;9.93;;;5.75;;
30543;SDS011;43388;46.308;4.600;2023-04-24T05:05:25;6.85;;;5.10;;
30543;SDS011;43388;46.308;4.600;2023-04-24T05:07:51;9.93;;;5.82;;
30543;SDS011;43388;46.308;4.600;2023-04-24T05:10:18;6.90;;;4.60;;
30543;SDS011;43388;46.308;4.600;2023-04-24T05:12:44;7.95;;;5.03;;
30543;SDS011;43388;46.308;4.600;2023-04-24T05:15:10;8.85;;;6.53;;
30543;SDS011;43388;46.308;4.600;2023-04-24T05:17:36;9.95;;;5.55;;
30543;SDS011;43388;46.308;4.600;2023-04-24T05:20:04;8.93;;;5.28;;
30543;SDS011;43388;46.308;4.600;2023-04-24T05:22:31;10.63;;;4.78;;
30543;SDS011;43388;46.308;4.600;2023-04-24T05:24:57;9.35;;;5.15;;
30543;SDS011;43388;46.308;4.600;2023-04-24T05:27:23;7.80;;;6.20;;
30543;SDS011;43388;46.308;4.600;2023-04-24T05:29:50;8.48;;;4.78;;
30543;SDS011;43388;46.308;4.600;2023-04-24T05:32:16;9.00;;;4.68;;
30543;SDS011;43388;46.308;4.600;2023-04-24T05:34:42;8.48;;;4.80;;
30543;SDS011;43388;46.308;4.600;2023-04-24T05:37:08;7.28;;;5.00;;
30543;SDS011;43388;46.308;4.600;2023-04-24T05:39:35;8.45;;;5.20;;
30543;SDS011;43388;46.308;4.600;2023-04-24T05:42:01;9.02;;;5.35;;
30543;SDS011;43388;46.308;4.600;2023-04-24T05:44:29;7.18;;;5.60;;
30543;SDS011;43388;46.308;4.600;2023-04-24T05:46:55;7.25;;;5.05;;
30543;SDS011;43388;46.308;4.600;2023-04-24T05:49:21;5.97;;;5.43;;
30543;SDS011;43388;46.308;4.600;2023-04-24T05:51:47;4.72;;;4.30;;
30543;SDS011;43388;46.308;4.600;2023-04-24T05:54:13;7.20;;;4.70;;
30543;SDS011;43388;46.308;4.600;2023-04-24T05:56:40;6.93;;;5.68;;
30543;SDS011;43388;46.308;4.600;2023-04-24T05:59:06;7.05;;;5.18;;
30543;SDS011;43388;46.308;4.600;2023-04-24T06:01:32;7.88;;;4.82;;
30543;SDS011;43388;46.308;4.600;2023-04-24T06:03:58;8.40;;;5.00;;
30543;SDS011;43388;46.308;4.600;2023-04-24T06:06:25;7.15;;;5.22;;
30543;SDS011;43388;46.308;4.600;2023-04-24T06:08:52;5.97;;;5.40;;
30543;SDS011;43388;46.308;4.600;2023-04-24T06:11:18;8.73;;;5.05;;
30543;SDS011;43388;46.308;4.600;2023-04-24T06:13:44;8.70;;;5.78;;
30543;SDS011;43388;46.308;4.600;2023-04-24T06:16:10;7.68;;;5.20;;
30543;SDS011;43388;46.308;4.600;2023-04-24T06:18:36;10.15;;;5.32;;
30543;SDS011;43388;46.308;4.600;2023-04-24T06:21:03;7.20;;;5.22;;
30543;SDS011;43388;46.308;4.600;2023-04-24T06:23:30;11.48;;;5.25;;
30543;SDS011;43388;46.308;4.600;2023-04-24T06:25:57;7.88;;;5.15;;
30543;SDS011;43388;46.308;4.600;2023-04-24T06:28:23;7.85;;;4.88;;
30543;SDS011;43388;46.308;4.600;2023-04-24T06:30:49;7.95;;;5.00;;
30543;SDS011;43388;46.308;4.600;2023-04-24T06:33:16;9.70;;;5.70;;
30543;SDS011;43388;46.308;4.600;2023-04-24T06:35:42;6.97;;;5.15;;
30543;SDS011;43388;46.308;4.600;2023-04-24T06:38:08;7.13;;;5.38;;
30543;SDS011;43388;46.308;4.600;2023-04-24T06:40:34;6.20;;;5.10;;
30543;SDS011;43388;46.308;4.600;2023-04-24T06:43:00;6.35;;;4.60;;
30543;SDS011;43388;46.308;4.600;2023-04-24T06:45:28;8.23;;;4.50;;
30543;SDS011;43388;46.308;4.600;2023-04-24T06:47:54;7.57;;;4.97;;
30543;SDS011;43388;46.308;4.600;2023-04-24T06:50:20;6.47;;;5.00;;
30543;SDS011;43388;46.308;4.600;2023-04-24T06:52:46;5.38;;;4.85;;
30543;SDS011;43388;46.308;4.600;2023-04-24T06:55:12;7.05;;;4.90;;
30543;SDS011;43388;46.308;4.600;2023-04-24T06:57:40;11.40;;;5.40;;
30543;SDS011;43388;46.308;4.600;2023-04-24T07:00:06;5.43;;;4.55;;
30543;SDS011;43388;46.308;4.600;2023-04-24T07:02:34;5.28;;;3.80;;
30543;SDS011;43388;46.308;4.600;2023-04-24T07:05:00;6.95;;;5.15;;
30543;SDS011;43388;46.308;4.600;2023-04-24T07:07:26;7.80;;;4.40;;
30543;SDS011;43388;46.308;4.600;2023-04-24T07:09:52;5.13;;;4.30;;
30543;SDS011;43388;46.308;4.600;2023-04-24T07:12:19;4.90;;;4.50;;
30543;SDS011;43388;46.308;4.600;2023-04-24T07:14:46;7.80;;;4.55;;
30543;SDS011;43388;46.308;4.600;2023-04-24T07:17:13;5.82;;;4.90;;
30543;SDS011;43388;46.308;4.600;2023-04-24T07:19:39;8.98;;;4.80;;
30543;SDS011;43388;46.308;4.600;2023-04-24T07:22:05;6.05;;;4.43;;
30543;SDS011;43388;46.308;4.600;2023-04-24T07:24:32;12.05;;;4.32;;
30543;SDS011;43388;46.308;4.600;2023-04-24T07:26:58;6.82;;;4.43;;
30543;SDS011;43388;46.308;4.600;2023-04-24T07:29:26;5.40;;;4.47;;
30543;SDS011;43388;46.308;4.600;2023-04-24T07:31:52;5.95;;;4.85;;
30543;SDS011;43388;46.308;4.600;2023-04-24T07:34:19;5.32;;;4.20;;
30543;SDS011;43388;46.308;4.600;2023-04-24T07:36:45;4.80;;;4.38;;
30543;SDS011;43388;46.308;4.600;2023-04-24T07:39:12;5.50;;;4.68;;
30543;SDS011;43388;46.308;4.600;2023-04-24T07:41:38;8.02;;;4.65;;
30543;SDS011;43388;46.308;4.600;2023-04-24T07:44:04;5.32;;;4.05;;
30543;SDS011;43388;46.308;4.600;2023-04-24T07:46:30;6.40;;;4.35;;
30543;SDS011;43388;46.308;4.600;2023-04-24T07:48:57;6.05;;;4.40;;
30543;SDS011;43388;46.308;4.600;2023-04-24T07:51:24;4.97;;;4.10;;
30543;SDS011;43388;46.308;4.600;2023-04-24T07:53:52;7.22;;;4.53;;
30543;SDS011;43388;46.308;4.600;2023-04-24T07:56:20;4.82;;;4.05;;
30543;SDS011;43388;46.308;4.600;2023-04-24T07:58:46;7.35;;;4.63;;
30543;SDS011;43388;46.308;4.600;2023-04-24T08:01:12;5.60;;;4.43;;
30543;SDS011;43388;46.308;4.600;2023-04-24T08:03:38;5.80;;;4.10;;
30543;SDS011;43388;46.308;4.600;2023-04-24T08:06:04;13.20;;;4.82;;
30543;SDS011;43388;46.308;4.600;2023-04-24T08:08:30;4.93;;;4.43;;
30543;SDS011;43388;46.308;4.600;2023-04-24T08:10:56;5.38;;;4.88;;
30543;SDS011;43388;46.308;4.600;2023-04-24T08:13:22;11.85;;;5.00;;
30543;SDS011;43388;46.308;4.600;2023-04-24T08:15:48;8.05;;;4.78;;
30543;SDS011;43388;46.308;4.600;2023-04-24T08:18:14;4.80;;;3.97;;
30543;SDS011;43388;46.308;4.600;2023-04-24T08:20:41;7.18;;;4.85;;
30543;SDS011;43388;46.308;4.600;2023-04-24T08:23:07;8.82;;;4.60;;
30543;SDS011;43388;46.308;4.600;2023-04-24T08:25:33;4.78;;;4.20;;
30543;SDS011;43388;46.308;4.600;2023-04-24T08:28:00;4.90;;;3.85;;
30543;SDS011;43388;46.308;4.600;2023-04-24T08:30:26;5.75;;;4.45;;
30543;SDS011;43388;46.308;4.600;2023-04-24T08:32:52;4.72;;;4.22;;
30543;SDS011;43388;46.308;4.600;2023-04-24T08:35:18;7.80;;;5.20;;
30543;SDS011;43388;46.308;4.600;2023-04-24T08:37:44;7.95;;;4.68;;
30543;SDS011;43388;46.308;4.600;2023-04-24T08:40:14;5.68;;;4.88;;
30543;SDS011;43388;46.308;4.600;2023-04-24T08:42:43;6.20;;;3.85;;
30543;SDS011;43388;46.308;4.600;2023-04-24T08:45:11;5.13;;;4.53;;
30543;SDS011;43388;46.308;4.600;2023-04-24T08:47:38;5.32;;;4.57;;
30543;SDS011;43388;46.308;4.600;2023-04-24T08:50:04;4.80;;;4.30;;
30543;SDS011;43388;46.308;4.600;2023-04-24T08:52:32;8.13;;;4.88;;
30543;SDS011;43388;46.308;4.600;2023-04-24T08:54:58;4.88;;;4.30;;
30543;SDS011;43388;46.308;4.600;2023-04-24T08:57:26;4.55;;;4.15;;
30543;SDS011;43388;46.308;4.600;2023-04-24T08:59:53;7.40;;;4.53;;
30543;SDS011;43388;46.308;4.600;2023-04-24T09:02:19;7.50;;;4.70;;
30543;SDS011;43388;46.308;4.600;2023-04-24T09:04:45;7.07;;;4.78;;
30543;SDS011;43388;46.308;4.600;2023-04-24T09:07:12;9.57;;;4.95;;
30543;SDS011;43388;46.308;4.600;2023-04-24T09:09:38;5.63;;;4.93;;
30543;SDS011;43388;46.308;4.600;2023-04-24T09:12:04;5.45;;;4.80;;
30543;SDS011;43388;46.308;4.600;2023-04-24T09:14:31;8.13;;;5.13;;
30543;SDS011;43388;46.308;4.600;2023-04-24T09:16:57;6.18;;;4.63;;
30543;SDS011;43388;46.308;4.600;2023-04-24T09:19:23;5.95;;;4.50;;
30543;SDS011;43388;46.308;4.600;2023-04-24T09:21:49;5.07;;;4.70;;
30543;SDS011;43388;46.308;4.600;2023-04-24T09:24:19;8.60;;;4.95;;
30543;SDS011;43388;46.308;4.600;2023-04-24T09:26:47;5.13;;;4.68;;
30543;SDS011;43388;46.308;4.600;2023-04-24T09:29:14;5.18;;;4.68;;
30543;SDS011;43388;46.308;4.600;2023-04-24T09:31:41;6.15;;;5.03;;
30543;SDS011;43388;46.308;4.600;2023-04-24T09:34:07;5.63;;;4.93;;
30543;SDS011;43388;46.308;4.600;2023-04-24T09:36:34;7.97;;;4.80;;
30543;SDS011;43388;46.308;4.600;2023-04-24T09:39:03;6.53;;;4.45;;
30543;SDS011;43388;46.308;4.600;2023-04-24T09:41:31;8.77;;;4.55;;
30543;SDS011;43388;46.308;4.600;2023-04-24T09:43:58;4.78;;;4.38;;
30543;SDS011;43388;46.308;4.600;2023-04-24T09:46:36;5.68;;;5.05;;
30543;SDS011;43388;46.308;4.600;2023-04-24T09:49:12;5.55;;;4.55;;
30543;SDS011;43388;46.308;4.600;2023-04-24T09:51:40;5.30;;;4.80;;
30543;SDS011;43388;46.308;4.600;2023-04-24T09:54:16;6.90;;;5.07;;
30543;SDS011;43388;46.308;4.600;2023-04-24T09:56:43;5.35;;;4.85;;
30543;SDS011;43388;46.308;4.600;2023-04-24T09:59:10;5.72;;;5.15;;
30543;SDS011;43388;46.308;4.600;2023-04-24T10:01:36;7.03;;;4.55;;
30543;SDS011;43388;46.308;4.600;2023-04-24T10:04:03;8.70;;;4.85;;
30543;SDS011;43388;46.308;4.600;2023-04-24T10:06:31;5.70;;;4.93;;
30543;SDS011;43388;46.308;4.600;2023-04-24T10:08:57;4.75;;;4.00;;
30543;SDS011;43388;46.308;4.600;2023-04-24T10:11:25;6.07;;;5.38;;
30543;SDS011;43388;46.308;4.600;2023-04-24T10:13:52;4.57;;;4.18;;
30543;SDS011;43388;46.308;4.600;2023-04-24T10:16:19;5.57;;;4.57;;
30543;SDS011;43388;46.308;4.600;2023-04-24T10:18:47;7.22;;;4.72;;
30543;SDS011;43388;46.308;4.600;2023-04-24T10:21:14;6.45;;;4.35;;
30543;SDS011;43388;46.308;4.600;2023-04-24T10:23:40;5.13;;;4.57;;
30543;SDS011;43388;46.308;4.600;2023-04-24T10:26:08;6.15;;;4.97;;
30543;SDS011;43388;46.308;4.600;2023-04-24T10:28:36;6.55;;;4.88;;
30543;SDS011;43388;46.308;4.600;2023-04-24T10:31:02;5.28;;;4.53;;
30543;SDS011;43388;46.308;4.600;2023-04-24T10:33:29;10.32;;;4.88;;
30543;SDS011;43388;46.308;4.600;2023-04-24T10:35:55;7.93;;;5.32;;
30543;SDS011;43388;46.308;4.600;2023-04-24T10:38:24;6.95;;;5.10;;
30543;SDS011;43388;46.308;4.600;2023-04-24T10:40:50;6.75;;;5.22;;
30543;SDS011;43388;46.308;4.600;2023-04-24T10:43:17;6.35;;;5.60;;
30543;SDS011;43388;46.308;4.600;2023-04-24T10:46:03;6.10;;;4.63;;
30543;SDS011;43388;46.308;4.600;2023-04-24T10:48:29;6.07;;;4.38;;
30543;SDS011;43388;46.308;4.600;2023-04-24T10:50:55;8.57;;;4.60;;
30543;SDS011;43388;46.308;4.600;2023-04-24T10:53:23;7.90;;;4.75;;
30543;SDS011;43388;46.308;4.600;2023-04-24T10:55:50;4.63;;;4.22;;
30543;SDS011;43388;46.308;4.600;2023-04-24T10:58:16;6.32;;;3.70;;
30543;SDS011;43388;46.308;4.600;2023-04-24T11:00:43;4.28;;;3.83;;
30543;SDS011;43388;46.308;4.600;2023-04-24T11:03:31;7.50;;;4.65;;
30543;SDS011;43388;46.308;4.600;2023-04-24T11:06:03;6.82;;;4.47;;
30543;SDS011;43388;46.308;4.600;2023-04-24T11:08:31;9.05;;;4.72;;
30543;SDS011;43388;46.308;4.600;2023-04-24T11:11:07;10.93;;;4.43;;
30543;SDS011;43388;46.308;4.600;2023-04-24T11:21:38;8.25;;;4.88;;
30543;SDS011;43388;46.308;4.600;2023-04-24T11:27:00;5.70;;;4.30;;
30543;SDS011;43388;46.308;4.600;2023-04-24T11:34:50;6.43;;;4.60;;
30543;SDS011;43388;46.308;4.600;2023-04-24T11:37:17;9.05;;;4.40;;
30543;SDS011;43388;46.308;4.600;2023-04-24T11:39:43;7.10;;;4.88;;
30543;SDS011;43388;46.308;4.600;2023-04-24T11:42:09;6.75;;;4.32;;
30543;SDS011;43388;46.308;4.600;2023-04-24T11:44:35;7.65;;;4.30;;
30543;SDS011;43388;46.308;4.600;2023-04-24T11:47:05;9.63;;;4.85;;
30543;SDS011;43388;46.308;4.600;2023-04-24T11:49:32;6.63;;;4.38;;
30543;SDS011;43388;46.308;4.600;2023-04-24T11:51:59;5.95;;;3.78;;
30543;SDS011;43388;46.308;4.600;2023-04-24T11:54:26;6.78;;;4.13;;
30543;SDS011;43388;46.308;4.600;2023-04-24T11:56:53;6.03;;;4.20;;
30543;SDS011;43388;46.308;4.600;2023-04-24T11:59:19;4.85;;;4.35;;
30543;SDS011;43388;46.308;4.600;2023-04-24T12:01:45;6.13;;;4.47;;
30543;SDS011;43388;46.308;4.600;2023-04-24T12:04:11;5.97;;;4.85;;
30543;SDS011;43388;46.308;4.600;2023-04-24T12:06:37;6.72;;;4.25;;
30543;SDS011;43388;46.308;4.600;2023-04-24T12:09:03;5.93;;;4.47;;
30543;SDS011;43388;46.308;4.600;2023-04-24T12:11:29;7.68;;;4.30;;
30543;SDS011;43388;46.308;4.600;2023-04-24T12:13:55;6.80;;;4.15;;
30543;SDS011;43388;46.308;4.600;2023-04-24T12:16:22;6.68;;;5.05;;
30543;SDS011;43388;46.308;4.600;2023-04-24T12:18:50;5.90;;;4.25;;
30543;SDS011;43388;46.308;4.600;2023-04-24T12:21:17;11.70;;;4.97;;
30543;SDS011;43388;46.308;4.600;2023-04-24T12:23:44;6.68;;;4.78;;
30543;SDS011;43388;46.308;4.600;2023-04-24T12:26:19;7.35;;;4.60;;
30543;SDS011;43388;46.308;4.600;2023-04-24T12:28:47;8.20;;;5.28;;
30543;SDS011;43388;46.308;4.600;2023-04-24T12:31:16;6.93;;;4.88;;
30543;SDS011;43388;46.308;4.600;2023-04-24T12:33:43;9.65;;;4.50;;
30543;SDS011;43388;46.308;4.600;2023-04-24T12:36:09;7.85;;;5.63;;
30543;SDS011;43388;46.308;4.600;2023-04-24T12:38:37;6.00;;;4.57;;
30543;SDS011;43388;46.308;4.600;2023-04-24T12:43:32;11.77;;;5.15;;
30543;SDS011;43388;46.308;4.600;2023-04-24T12:45:58;7.32;;;4.70;;
30543;SDS011;43388;46.308;4.600;2023-04-24T12:48:25;8.57;;;4.72;;
30543;SDS011;43388;46.308;4.600;2023-04-24T12:50:51;10.80;;;4.30;;
30543;SDS011;43388;46.308;4.600;2023-04-24T12:53:17;8.23;;;4.03;;
30543;SDS011;43388;46.308;4.600;2023-04-24T12:55:43;6.93;;;4.70;;
30543;SDS011;43388;46.308;4.600;2023-04-24T12:58:10;7.75;;;4.45;;
30543;SDS011;43388;46.308;4.600;2023-04-24T13:00:36;5.25;;;4.65;;
30543;SDS011;43388;46.308;4.600;2023-04-24T13:03:02;7.75;;;4.65;;
30543;SDS011;43388;46.308;4.600;2023-04-24T13:05:28;11.25;;;4.78;;
30543;SDS011;43388;46.308;4.600;2023-04-24T13:07:54;10.45;;;4.70;;
30543;SDS011;43388;46.308;4.600;2023-04-24T13:10:21;6.00;;;4.50;;
30543;SDS011;43388;46.308;4.600;2023-04-24T13:12:46;5.55;;;4.15;;
30543;SDS011;43388;46.308;4.600;2023-04-24T13:15:13;7.07;;;4.18;;
30543;SDS011;43388;46.308;4.600;2023-04-24T13:17:38;4.53;;;4.13;;
30543;SDS011;43388;46.308;4.600;2023-04-24T13:20:05;6.40;;;4.38;;
30543;SDS011;43388;46.308;4.600;2023-04-24T13:22:31;10.93;;;4.50;;
30543;SDS011;43388;46.308;4.600;2023-04-24T13:24:57;6.90;;;4.63;;
30543;SDS011;43388;46.308;4.600;2023-04-24T13:27:23;7.05;;;4.57;;
30543;SDS011;43388;46.308;4.600;2023-04-24T13:29:49;7.18;;;4.03;;
30543;SDS011;43388;46.308;4.600;2023-04-24T13:32:16;6.78;;;4.15;;
30543;SDS011;43388;46.308;4.600;2023-04-24T13:34:42;7.57;;;4.20;;
30543;SDS011;43388;46.308;4.600;2023-04-24T13:37:08;8.63;;;4.72;;
30543;SDS011;43388;46.308;4.600;2023-04-24T13:39:34;10.63;;;4.13;;
30543;SDS011;43388;46.308;4.600;2023-04-24T13:42:00;7.53;;;4.40;;
30543;SDS011;43388;46.308;4.600;2023-04-24T13:44:26;9.60;;;4.40;;
30543;SDS011;43388;46.308;4.600;2023-04-24T13:46:53;8.63;;;4.53;;
30543;SDS011;43388;46.308;4.600;2023-04-24T13:49:21;9.73;;;4.78;;
30543;SDS011;43388;46.308;4.600;2023-04-24T13:51:49;5.93;;;4.00;;
30543;SDS011;43388;46.308;4.600;2023-04-24T13:54:15;5.65;;;4.93;;
30543;SDS011;43388;46.308;4.600;2023-04-24T13:56:41;6.82;;;4.10;;
30543;SDS011;43388;46.308;4.600;2023-04-24T13:59:07;5.10;;;4.10;;
30543;SDS011;43388;46.308;4.600;2023-04-24T14:01:34;8.40;;;4.43;;
30543;SDS011;43388;46.308;4.600;2023-04-24T14:04:00;9.13;;;4.78;;
30543;SDS011;43388;46.308;4.600;2023-04-24T14:06:26;5.93;;;3.92;;
30543;SDS011;43388;46.308;4.600;2023-04-24T14:08:52;13.63;;;4.68;;
30543;SDS011;43388;46.308;4.600;2023-04-24T14:11:18;7.18;;;4.25;;
30543;SDS011;43388;46.308;4.600;2023-04-24T14:13:45;7.18;;;4.35;;
30543;SDS011;43388;46.308;4.600;2023-04-24T14:16:11;6.63;;;4.70;;
30543;SDS011;43388;46.308;4.600;2023-04-24T14:18:37;6.85;;;4.25;;
30543;SDS011;43388;46.308;4.600;2023-04-24T14:21:03;6.05;;;4.28;;
30543;SDS011;43388;46.308;4.600;2023-04-24T14:23:29;8.73;;;4.78;;
30543;SDS011;43388;46.308;4.600;2023-04-24T14:25:56;10.07;;;4.75;;
30543;SDS011;43388;46.308;4.600;2023-04-24T14:28:22;5.68;;;4.10;;
30543;SDS011;43388;46.308;4.600;2023-04-24T14:30:48;8.43;;;4.57;;
30543;SDS011;43388;46.308;4.600;2023-04-24T14:33:14;6.90;;;4.20;;
30543;SDS011;43388;46.308;4.600;2023-04-24T14:35:40;6.63;;;4.30;;
30543;SDS011;43388;46.308;4.600;2023-04-24T14:38:07;6.93;;;4.72;;
30543;SDS011;43388;46.308;4.600;2023-04-24T14:40:34;11.32;;;4.72;;
30543;SDS011;43388;46.308;4.600;2023-04-24T14:43:00;8.10;;;4.88;;
30543;SDS011;43388;46.308;4.600;2023-04-24T14:45:26;5.22;;;4.15;;
30543;SDS011;43388;46.308;4.600;2023-04-24T14:47:52;6.85;;;4.07;;
30543;SDS011;43388;46.308;4.600;2023-04-24T14:50:18;10.32;;;4.53;;
30543;SDS011;43388;46.308;4.600;2023-04-24T14:52:45;6.47;;;3.45;;
30543;SDS011;43388;46.308;4.600;2023-04-24T14:55:11;4.28;;;3.80;;
30543;SDS011;43388;46.308;4.600;2023-04-24T14:57:37;6.18;;;3.85;;
30543;SDS011;43388;46.308;4.600;2023-04-24T15:00:04;8.07;;;4.15;;